sensor_id;sensor_type;location;lat;lon;timestamp;P1;durP1;ratioP1;P2;durP2;ratioP2
66628;SDS011;53532;53.084;6.352;2023-02-21T00:01:47;26.05;;;11.15;;
66628;SDS011;53532;53.084;6.352;2023-02-21T00:04:31;24.00;;;11.80;;
66628;SDS011;53532;53.084;6.352;2023-02-21T00:07:17;25.98;;;13.10;;
66628;SDS011;53532;53.084;6.352;2023-02-21T00:10:02;26.63;;;11.38;;
66628;SDS011;53532;53.084;6.352;2023-02-21T00:12:48;21.42;;;11.98;;
66628;SDS011;53532;53.084;6.352;2023-02-21T00:15:33;24.58;;;11.70;;
66628;SDS011;53532;53.084;6.352;2023-02-21T00:18:18;25.88;;;12.35;;
66628;SDS011;53532;53.084;6.352;2023-02-21T00:21:03;22.90;;;13.18;;
66628;SDS011;53532;53.084;6.352;2023-02-21T00:23:49;27.05;;;13.35;;
66628;SDS011;53532;53.084;6.352;2023-02-21T00:26:34;26.00;;;13.40;;
66628;SDS011;53532;53.084;6.352;2023-02-21T00:29:20;26.90;;;13.15;;
66628;SDS011;53532;53.084;6.352;2023-02-21T00:32:05;27.80;;;13.57;;
66628;SDS011;53532;53.084;6.352;2023-02-21T00:34:49;23.80;;;14.02;;
66628;SDS011;53532;53.084;6.352;2023-02-21T00:37:34;27.75;;;13.68;;
66628;SDS011;53532;53.084;6.352;2023-02-21T00:40:20;27.25;;;14.02;;
66628;SDS011;53532;53.084;6.352;2023-02-21T00:43:05;25.40;;;13.73;;
66628;SDS011;53532;53.084;6.352;2023-02-21T00:45:50;24.60;;;12.77;;
66628;SDS011;53532;53.084;6.352;2023-02-21T00:48:35;25.08;;;13.32;;
66628;SDS011;53532;53.084;6.352;2023-02-21T00:51:20;25.80;;;13.65;;
66628;SDS011;53532;53.084;6.352;2023-02-21T00:54:05;24.17;;;12.60;;
66628;SDS011;53532;53.084;6.352;2023-02-21T00:56:51;24.50;;;13.43;;
66628;SDS011;53532;53.084;6.352;2023-02-21T00:59:35;29.95;;;13.38;;
66628;SDS011;53532;53.084;6.352;2023-02-21T01:02:20;24.77;;;12.45;;
66628;SDS011;53532;53.084;6.352;2023-02-21T01:05:05;23.48;;;12.68;;
66628;SDS011;53532;53.084;6.352;2023-02-21T01:07:50;23.98;;;12.43;;
66628;SDS011;53532;53.084;6.352;2023-02-21T01:10:36;22.92;;;11.75;;
66628;SDS011;53532;53.084;6.352;2023-02-21T01:13:25;23.90;;;12.02;;
66628;SDS011;53532;53.084;6.352;2023-02-21T01:16:10;21.15;;;11.32;;
66628;SDS011;53532;53.084;6.352;2023-02-21T01:18:54;22.88;;;11.77;;
66628;SDS011;53532;53.084;6.352;2023-02-21T01:21:39;26.50;;;12.45;;
66628;SDS011;53532;53.084;6.352;2023-02-21T01:24:24;22.65;;;11.85;;
66628;SDS011;53532;53.084;6.352;2023-02-21T01:27:10;24.23;;;11.50;;
66628;SDS011;53532;53.084;6.352;2023-02-21T01:29:56;23.65;;;12.57;;
66628;SDS011;53532;53.084;6.352;2023-02-21T01:32:41;26.60;;;12.85;;
66628;SDS011;53532;53.084;6.352;2023-02-21T01:35:26;25.80;;;13.02;;
66628;SDS011;53532;53.084;6.352;2023-02-21T01:38:10;26.92;;;13.18;;
66628;SDS011;53532;53.084;6.352;2023-02-21T01:40:55;26.10;;;14.18;;
66628;SDS011;53532;53.084;6.352;2023-02-21T01:43:54;26.60;;;13.93;;
66628;SDS011;53532;53.084;6.352;2023-02-21T01:46:41;27.05;;;13.65;;
66628;SDS011;53532;53.084;6.352;2023-02-21T01:49:26;28.52;;;13.77;;
66628;SDS011;53532;53.084;6.352;2023-02-21T01:52:11;24.63;;;13.77;;
66628;SDS011;53532;53.084;6.352;2023-02-21T01:54:56;25.15;;;14.40;;
66628;SDS011;53532;53.084;6.352;2023-02-21T01:57:41;24.10;;;13.77;;
66628;SDS011;53532;53.084;6.352;2023-02-21T02:00:28;25.52;;;14.65;;
66628;SDS011;53532;53.084;6.352;2023-02-21T02:03:15;28.83;;;13.80;;
66628;SDS011;53532;53.084;6.352;2023-02-21T02:06:00;26.42;;;14.23;;
66628;SDS011;53532;53.084;6.352;2023-02-21T02:08:47;24.08;;;14.30;;
66628;SDS011;53532;53.084;6.352;2023-02-21T02:11:35;26.20;;;14.07;;
66628;SDS011;53532;53.084;6.352;2023-02-21T02:14:27;27.67;;;15.05;;
66628;SDS011;53532;53.084;6.352;2023-02-21T02:16:59;29.27;;;14.50;;
66628;SDS011;53532;53.084;6.352;2023-02-21T02:19:36;28.15;;;15.07;;
66628;SDS011;53532;53.084;6.352;2023-02-21T02:24:55;28.13;;;14.63;;
66628;SDS011;53532;53.084;6.352;2023-02-21T02:30:28;28.80;;;14.45;;
66628;SDS011;53532;53.084;6.352;2023-02-21T02:35:55;30.13;;;15.65;;
66628;SDS011;53532;53.084;6.352;2023-02-21T02:38:24;26.95;;;14.88;;
66628;SDS011;53532;53.084;6.352;2023-02-21T02:40:54;28.45;;;15.10;;
66628;SDS011;53532;53.084;6.352;2023-02-21T02:43:24;29.60;;;15.50;;
66628;SDS011;53532;53.084;6.352;2023-02-21T02:45:53;30.08;;;15.55;;
66628;SDS011;53532;53.084;6.352;2023-02-21T02:48:22;27.90;;;15.88;;
66628;SDS011;53532;53.084;6.352;2023-02-21T02:50:50;29.50;;;16.17;;
66628;SDS011;53532;53.084;6.352;2023-02-21T02:53:20;25.45;;;14.75;;
66628;SDS011;53532;53.084;6.352;2023-02-21T02:55:47;31.05;;;16.33;;
66628;SDS011;53532;53.084;6.352;2023-02-21T02:58:15;29.70;;;16.80;;
66628;SDS011;53532;53.084;6.352;2023-02-21T03:00:44;29.95;;;16.92;;
66628;SDS011;53532;53.084;6.352;2023-02-21T03:03:15;30.40;;;16.77;;
66628;SDS011;53532;53.084;6.352;2023-02-21T03:05:49;28.52;;;15.70;;
66628;SDS011;53532;53.084;6.352;2023-02-21T03:08:21;28.27;;;16.60;;
66628;SDS011;53532;53.084;6.352;2023-02-21T03:10:52;28.23;;;16.83;;
66628;SDS011;53532;53.084;6.352;2023-02-21T03:13:20;29.58;;;16.15;;
66628;SDS011;53532;53.084;6.352;2023-02-21T03:15:48;27.98;;;15.80;;
66628;SDS011;53532;53.084;6.352;2023-02-21T03:18:17;25.40;;;15.98;;
66628;SDS011;53532;53.084;6.352;2023-02-21T03:20:47;30.20;;;16.13;;
66628;SDS011;53532;53.084;6.352;2023-02-21T03:23:16;24.75;;;14.55;;
66628;SDS011;53532;53.084;6.352;2023-02-21T03:25:44;29.15;;;15.60;;
66628;SDS011;53532;53.084;6.352;2023-02-21T03:28:12;26.98;;;15.75;;
66628;SDS011;53532;53.084;6.352;2023-02-21T03:30:40;29.13;;;16.27;;
66628;SDS011;53532;53.084;6.352;2023-02-21T03:33:06;26.85;;;15.88;;
66628;SDS011;53532;53.084;6.352;2023-02-21T03:35:32;31.15;;;16.60;;
66628;SDS011;53532;53.084;6.352;2023-02-21T03:37:58;27.67;;;15.88;;
66628;SDS011;53532;53.084;6.352;2023-02-21T03:40:26;30.48;;;17.27;;
66628;SDS011;53532;53.084;6.352;2023-02-21T03:42:54;29.20;;;17.30;;
66628;SDS011;53532;53.084;6.352;2023-02-21T03:45:21;32.05;;;18.08;;
66628;SDS011;53532;53.084;6.352;2023-02-21T03:47:47;28.23;;;17.02;;
66628;SDS011;53532;53.084;6.352;2023-02-21T03:50:13;32.83;;;17.70;;
66628;SDS011;53532;53.084;6.352;2023-02-21T03:52:40;27.55;;;16.98;;
66628;SDS011;53532;53.084;6.352;2023-02-21T03:55:06;28.52;;;17.00;;
66628;SDS011;53532;53.084;6.352;2023-02-21T03:57:33;28.27;;;16.83;;
66628;SDS011;53532;53.084;6.352;2023-02-21T04:00:00;29.33;;;18.25;;
66628;SDS011;53532;53.084;6.352;2023-02-21T04:02:26;28.75;;;17.48;;
66628;SDS011;53532;53.084;6.352;2023-02-21T04:04:53;30.30;;;19.35;;
66628;SDS011;53532;53.084;6.352;2023-02-21T04:07:19;30.50;;;18.08;;
66628;SDS011;53532;53.084;6.352;2023-02-21T04:09:46;28.85;;;18.38;;
66628;SDS011;53532;53.084;6.352;2023-02-21T04:12:12;29.25;;;17.92;;
66628;SDS011;53532;53.084;6.352;2023-02-21T04:14:38;32.25;;;20.45;;
66628;SDS011;53532;53.084;6.352;2023-02-21T04:17:06;32.60;;;19.35;;
66628;SDS011;53532;53.084;6.352;2023-02-21T04:19:32;34.13;;;19.88;;
66628;SDS011;53532;53.084;6.352;2023-02-21T04:21:58;35.10;;;19.52;;
66628;SDS011;53532;53.084;6.352;2023-02-21T04:24:25;33.90;;;19.70;;
66628;SDS011;53532;53.084;6.352;2023-02-21T04:26:51;33.72;;;20.58;;
66628;SDS011;53532;53.084;6.352;2023-02-21T04:29:17;34.90;;;20.50;;
66628;SDS011;53532;53.084;6.352;2023-02-21T04:31:43;33.42;;;20.67;;
66628;SDS011;53532;53.084;6.352;2023-02-21T04:34:11;35.28;;;20.80;;
66628;SDS011;53532;53.084;6.352;2023-02-21T04:36:37;35.70;;;20.98;;
66628;SDS011;53532;53.084;6.352;2023-02-21T04:39:04;38.75;;;21.70;;
66628;SDS011;53532;53.084;6.352;2023-02-21T04:41:30;34.85;;;21.52;;
66628;SDS011;53532;53.084;6.352;2023-02-21T04:43:56;30.63;;;19.88;;
66628;SDS011;53532;53.084;6.352;2023-02-21T04:46:23;31.83;;;20.67;;
66628;SDS011;53532;53.084;6.352;2023-02-21T04:48:49;34.65;;;21.08;;
66628;SDS011;53532;53.084;6.352;2023-02-21T04:51:19;36.03;;;21.08;;
66628;SDS011;53532;53.084;6.352;2023-02-21T04:53:46;36.40;;;21.20;;
66628;SDS011;53532;53.084;6.352;2023-02-21T04:56:12;35.90;;;21.08;;
66628;SDS011;53532;53.084;6.352;2023-02-21T04:58:38;34.25;;;20.98;;
66628;SDS011;53532;53.084;6.352;2023-02-21T05:01:05;32.92;;;20.88;;
66628;SDS011;53532;53.084;6.352;2023-02-21T05:03:31;31.80;;;21.20;;
66628;SDS011;53532;53.084;6.352;2023-02-21T05:05:57;35.28;;;20.65;;
66628;SDS011;53532;53.084;6.352;2023-02-21T05:08:25;34.33;;;20.70;;
66628;SDS011;53532;53.084;6.352;2023-02-21T05:10:51;35.40;;;22.33;;
66628;SDS011;53532;53.084;6.352;2023-02-21T05:13:19;36.78;;;21.52;;
66628;SDS011;53532;53.084;6.352;2023-02-21T05:15:45;35.78;;;20.77;;
66628;SDS011;53532;53.084;6.352;2023-02-21T05:18:11;35.78;;;21.27;;
66628;SDS011;53532;53.084;6.352;2023-02-21T05:20:38;36.05;;;21.73;;
66628;SDS011;53532;53.084;6.352;2023-02-21T05:23:04;36.28;;;20.85;;
66628;SDS011;53532;53.084;6.352;2023-02-21T05:25:31;35.88;;;22.35;;
66628;SDS011;53532;53.084;6.352;2023-02-21T05:27:57;35.90;;;21.88;;
66628;SDS011;53532;53.084;6.352;2023-02-21T05:30:23;35.55;;;21.13;;
66628;SDS011;53532;53.084;6.352;2023-02-21T05:32:51;33.30;;;21.02;;
66628;SDS011;53532;53.084;6.352;2023-02-21T05:35:17;37.10;;;21.42;;
66628;SDS011;53532;53.084;6.352;2023-02-21T05:37:43;34.78;;;20.95;;
66628;SDS011;53532;53.084;6.352;2023-02-21T05:40:10;33.13;;;20.70;;
66628;SDS011;53532;53.084;6.352;2023-02-21T05:42:38;35.92;;;22.58;;
66628;SDS011;53532;53.084;6.352;2023-02-21T05:45:04;35.25;;;22.02;;
66628;SDS011;53532;53.084;6.352;2023-02-21T05:47:32;39.63;;;21.17;;
66628;SDS011;53532;53.084;6.352;2023-02-21T05:49:58;34.85;;;20.58;;
66628;SDS011;53532;53.084;6.352;2023-02-21T05:52:24;36.38;;;21.92;;
66628;SDS011;53532;53.084;6.352;2023-02-21T05:54:50;38.28;;;21.52;;
66628;SDS011;53532;53.084;6.352;2023-02-21T05:57:17;36.38;;;21.52;;
66628;SDS011;53532;53.084;6.352;2023-02-21T05:59:46;32.75;;;20.27;;
66628;SDS011;53532;53.084;6.352;2023-02-21T06:02:12;35.83;;;20.88;;
66628;SDS011;53532;53.084;6.352;2023-02-21T06:04:38;35.80;;;21.40;;
66628;SDS011;53532;53.084;6.352;2023-02-21T06:07:04;38.17;;;21.23;;
66628;SDS011;53532;53.084;6.352;2023-02-21T06:09:31;36.00;;;21.50;;
66628;SDS011;53532;53.084;6.352;2023-02-21T06:11:57;39.65;;;21.55;;
66628;SDS011;53532;53.084;6.352;2023-02-21T06:14:23;34.72;;;21.13;;
66628;SDS011;53532;53.084;6.352;2023-02-21T06:16:52;37.25;;;21.92;;
66628;SDS011;53532;53.084;6.352;2023-02-21T06:19:18;36.67;;;21.65;;
66628;SDS011;53532;53.084;6.352;2023-02-21T06:21:45;34.80;;;20.88;;
66628;SDS011;53532;53.084;6.352;2023-02-21T06:24:11;36.83;;;22.10;;
66628;SDS011;53532;53.084;6.352;2023-02-21T06:26:37;36.05;;;21.25;;
66628;SDS011;53532;53.084;6.352;2023-02-21T06:29:05;39.40;;;22.25;;
66628;SDS011;53532;53.084;6.352;2023-02-21T06:31:31;37.08;;;21.60;;
66628;SDS011;53532;53.084;6.352;2023-02-21T06:33:59;36.72;;;22.15;;
66628;SDS011;53532;53.084;6.352;2023-02-21T06:36:26;37.97;;;22.02;;
66628;SDS011;53532;53.084;6.352;2023-02-21T06:38:54;37.45;;;22.13;;
66628;SDS011;53532;53.084;6.352;2023-02-21T06:41:22;35.42;;;21.02;;
66628;SDS011;53532;53.084;6.352;2023-02-21T06:43:48;37.10;;;22.05;;
66628;SDS011;53532;53.084;6.352;2023-02-21T06:46:15;37.60;;;21.02;;
66628;SDS011;53532;53.084;6.352;2023-02-21T06:48:41;38.75;;;22.80;;
66628;SDS011;53532;53.084;6.352;2023-02-21T06:51:09;37.22;;;22.05;;
66628;SDS011;53532;53.084;6.352;2023-02-21T06:53:35;38.03;;;22.08;;
66628;SDS011;53532;53.084;6.352;2023-02-21T06:56:01;37.63;;;22.05;;
66628;SDS011;53532;53.084;6.352;2023-02-21T06:58:27;39.40;;;23.13;;
66628;SDS011;53532;53.084;6.352;2023-02-21T07:00:54;41.22;;;22.67;;
66628;SDS011;53532;53.084;6.352;2023-02-21T07:03:20;41.65;;;23.23;;
66628;SDS011;53532;53.084;6.352;2023-02-21T07:05:46;40.45;;;23.77;;
66628;SDS011;53532;53.084;6.352;2023-02-21T07:08:17;39.78;;;23.08;;
66628;SDS011;53532;53.084;6.352;2023-02-21T07:10:43;37.55;;;22.77;;
66628;SDS011;53532;53.084;6.352;2023-02-21T07:13:09;39.58;;;22.50;;
66628;SDS011;53532;53.084;6.352;2023-02-21T07:15:35;38.85;;;22.98;;
66628;SDS011;53532;53.084;6.352;2023-02-21T07:18:01;39.78;;;22.88;;
66628;SDS011;53532;53.084;6.352;2023-02-21T07:20:31;39.17;;;23.25;;
66628;SDS011;53532;53.084;6.352;2023-02-21T07:22:57;38.03;;;23.80;;
66628;SDS011;53532;53.084;6.352;2023-02-21T07:25:25;40.83;;;23.95;;
66628;SDS011;53532;53.084;6.352;2023-02-21T07:27:51;39.95;;;23.20;;
66628;SDS011;53532;53.084;6.352;2023-02-21T07:30:17;36.50;;;21.55;;
66628;SDS011;53532;53.084;6.352;2023-02-21T07:32:43;37.38;;;23.33;;
66628;SDS011;53532;53.084;6.352;2023-02-21T07:35:10;40.63;;;22.92;;
66628;SDS011;53532;53.084;6.352;2023-02-21T07:37:36;36.95;;;22.85;;
66628;SDS011;53532;53.084;6.352;2023-02-21T07:40:03;38.38;;;23.17;;
66628;SDS011;53532;53.084;6.352;2023-02-21T07:42:32;38.35;;;23.75;;
66628;SDS011;53532;53.084;6.352;2023-02-21T07:44:59;37.75;;;23.13;;
66628;SDS011;53532;53.084;6.352;2023-02-21T07:47:26;42.08;;;23.17;;
66628;SDS011;53532;53.084;6.352;2023-02-21T07:49:52;39.78;;;23.45;;
66628;SDS011;53532;53.084;6.352;2023-02-21T07:52:18;37.70;;;22.17;;
66628;SDS011;53532;53.084;6.352;2023-02-21T07:54:45;42.97;;;24.20;;
66628;SDS011;53532;53.084;6.352;2023-02-21T07:57:11;36.20;;;22.15;;
66628;SDS011;53532;53.084;6.352;2023-02-21T07:59:39;37.63;;;22.88;;
66628;SDS011;53532;53.084;6.352;2023-02-21T08:02:05;38.30;;;23.30;;
66628;SDS011;53532;53.084;6.352;2023-02-21T08:04:31;38.83;;;22.83;;
66628;SDS011;53532;53.084;6.352;2023-02-21T08:06:58;37.08;;;22.45;;
66628;SDS011;53532;53.084;6.352;2023-02-21T08:09:24;38.58;;;22.75;;
66628;SDS011;53532;53.084;6.352;2023-02-21T08:11:51;36.33;;;22.98;;
66628;SDS011;53532;53.084;6.352;2023-02-21T08:14:17;40.88;;;23.67;;
66628;SDS011;53532;53.084;6.352;2023-02-21T08:16:44;37.20;;;23.42;;
66628;SDS011;53532;53.084;6.352;2023-02-21T08:19:10;37.22;;;23.38;;
66628;SDS011;53532;53.084;6.352;2023-02-21T08:21:36;38.42;;;22.48;;
66628;SDS011;53532;53.084;6.352;2023-02-21T08:24:03;34.67;;;21.20;;
66628;SDS011;53532;53.084;6.352;2023-02-21T08:26:29;38.15;;;23.25;;
66628;SDS011;53532;53.084;6.352;2023-02-21T08:28:55;35.15;;;23.15;;
66628;SDS011;53532;53.084;6.352;2023-02-21T08:31:22;36.28;;;22.25;;
66628;SDS011;53532;53.084;6.352;2023-02-21T08:33:49;36.53;;;22.60;;
66628;SDS011;53532;53.084;6.352;2023-02-21T08:36:15;35.28;;;21.80;;
66628;SDS011;53532;53.084;6.352;2023-02-21T08:38:41;38.72;;;23.27;;
66628;SDS011;53532;53.084;6.352;2023-02-21T08:41:08;38.17;;;22.00;;
66628;SDS011;53532;53.084;6.352;2023-02-21T08:43:34;35.45;;;21.75;;
66628;SDS011;53532;53.084;6.352;2023-02-21T08:46:01;33.28;;;21.35;;
66628;SDS011;53532;53.084;6.352;2023-02-21T08:48:27;35.00;;;22.25;;
66628;SDS011;53532;53.084;6.352;2023-02-21T08:50:54;32.17;;;21.30;;
66628;SDS011;53532;53.084;6.352;2023-02-21T08:53:20;36.03;;;22.42;;
66628;SDS011;53532;53.084;6.352;2023-02-21T08:55:47;36.53;;;21.90;;
66628;SDS011;53532;53.084;6.352;2023-02-21T08:58:13;37.83;;;23.75;;
66628;SDS011;53532;53.084;6.352;2023-02-21T09:00:39;37.42;;;22.33;;
66628;SDS011;53532;53.084;6.352;2023-02-21T09:03:05;34.88;;;21.83;;
66628;SDS011;53532;53.084;6.352;2023-02-21T09:05:31;40.30;;;22.90;;
66628;SDS011;53532;53.084;6.352;2023-02-21T09:07:59;33.50;;;22.13;;
66628;SDS011;53532;53.084;6.352;2023-02-21T09:10:26;35.55;;;22.50;;
66628;SDS011;53532;53.084;6.352;2023-02-21T09:12:52;37.67;;;23.13;;
66628;SDS011;53532;53.084;6.352;2023-02-21T09:15:18;33.15;;;21.73;;
66628;SDS011;53532;53.084;6.352;2023-02-21T09:17:44;34.53;;;22.50;;
66628;SDS011;53532;53.084;6.352;2023-02-21T09:20:13;34.38;;;21.67;;
66628;SDS011;53532;53.084;6.352;2023-02-21T09:22:41;34.85;;;21.05;;
66628;SDS011;53532;53.084;6.352;2023-02-21T09:25:10;33.33;;;21.30;;
66628;SDS011;53532;53.084;6.352;2023-02-21T09:27:37;33.13;;;21.13;;
66628;SDS011;53532;53.084;6.352;2023-02-21T09:30:04;33.03;;;20.15;;
66628;SDS011;53532;53.084;6.352;2023-02-21T09:32:30;32.92;;;19.95;;
66628;SDS011;53532;53.084;6.352;2023-02-21T09:34:56;31.63;;;20.55;;
66628;SDS011;53532;53.084;6.352;2023-02-21T09:37:23;34.25;;;20.85;;
66628;SDS011;53532;53.084;6.352;2023-02-21T09:39:49;31.02;;;20.30;;
66628;SDS011;53532;53.084;6.352;2023-02-21T09:42:16;29.70;;;20.55;;
66628;SDS011;53532;53.084;6.352;2023-02-21T09:44:43;30.77;;;20.20;;
66628;SDS011;53532;53.084;6.352;2023-02-21T09:47:12;30.73;;;19.85;;
66628;SDS011;53532;53.084;6.352;2023-02-21T09:49:40;31.15;;;20.13;;
66628;SDS011;53532;53.084;6.352;2023-02-21T09:52:09;29.85;;;19.13;;
66628;SDS011;53532;53.084;6.352;2023-02-21T09:54:43;28.55;;;19.73;;
66628;SDS011;53532;53.084;6.352;2023-02-21T09:57:11;30.27;;;20.10;;
66628;SDS011;53532;53.084;6.352;2023-02-21T09:59:40;27.55;;;18.95;;
66628;SDS011;53532;53.084;6.352;2023-02-21T10:02:13;28.58;;;20.27;;
66628;SDS011;53532;53.084;6.352;2023-02-21T10:04:47;28.42;;;19.83;;
66628;SDS011;53532;53.084;6.352;2023-02-21T10:07:20;30.27;;;19.45;;
66628;SDS011;53532;53.084;6.352;2023-02-21T10:09:48;28.63;;;19.70;;
66628;SDS011;53532;53.084;6.352;2023-02-21T10:12:19;33.33;;;20.00;;
66628;SDS011;53532;53.084;6.352;2023-02-21T10:14:56;28.25;;;19.65;;
66628;SDS011;53532;53.084;6.352;2023-02-21T10:17:28;28.63;;;19.20;;
66628;SDS011;53532;53.084;6.352;2023-02-21T10:19:58;27.45;;;19.48;;
66628;SDS011;53532;53.084;6.352;2023-02-21T10:22:27;28.65;;;19.65;;
66628;SDS011;53532;53.084;6.352;2023-02-21T10:24:55;28.98;;;19.38;;
66628;SDS011;53532;53.084;6.352;2023-02-21T10:27:21;30.92;;;19.25;;
66628;SDS011;53532;53.084;6.352;2023-02-21T10:29:49;27.13;;;18.48;;
66628;SDS011;53532;53.084;6.352;2023-02-21T10:32:20;31.10;;;20.73;;
66628;SDS011;53532;53.084;6.352;2023-02-21T10:34:47;28.45;;;18.70;;
66628;SDS011;53532;53.084;6.352;2023-02-21T10:37:23;31.23;;;19.67;;
66628;SDS011;53532;53.084;6.352;2023-02-21T10:39:51;28.05;;;19.35;;
66628;SDS011;53532;53.084;6.352;2023-02-21T10:42:19;30.90;;;19.92;;
66628;SDS011;53532;53.084;6.352;2023-02-21T10:44:51;26.90;;;19.27;;
66628;SDS011;53532;53.084;6.352;2023-02-21T10:47:18;27.92;;;18.85;;
66628;SDS011;53532;53.084;6.352;2023-02-21T10:49:51;28.20;;;18.92;;
66628;SDS011;53532;53.084;6.352;2023-02-21T10:52:19;29.27;;;19.17;;
66628;SDS011;53532;53.084;6.352;2023-02-21T10:55:00;28.83;;;18.35;;
66628;SDS011;53532;53.084;6.352;2023-02-21T10:57:27;28.13;;;19.08;;
66628;SDS011;53532;53.084;6.352;2023-02-21T10:59:55;27.73;;;19.13;;
66628;SDS011;53532;53.084;6.352;2023-02-21T11:02:25;27.35;;;18.75;;
66628;SDS011;53532;53.084;6.352;2023-02-21T11:04:54;27.88;;;18.88;;
66628;SDS011;53532;53.084;6.352;2023-02-21T11:07:21;28.35;;;19.58;;
66628;SDS011;53532;53.084;6.352;2023-02-21T11:09:48;26.77;;;18.35;;
66628;SDS011;53532;53.084;6.352;2023-02-21T11:12:16;25.15;;;18.40;;
66628;SDS011;53532;53.084;6.352;2023-02-21T11:14:44;27.90;;;18.52;;
66628;SDS011;53532;53.084;6.352;2023-02-21T11:17:11;23.38;;;17.35;;
66628;SDS011;53532;53.084;6.352;2023-02-21T11:19:42;29.75;;;18.10;;
66628;SDS011;53532;53.084;6.352;2023-02-21T11:22:10;28.40;;;17.63;;
66628;SDS011;53532;53.084;6.352;2023-02-21T11:24:44;25.85;;;17.30;;
66628;SDS011;53532;53.084;6.352;2023-02-21T11:27:10;25.67;;;16.98;;
66628;SDS011;53532;53.084;6.352;2023-02-21T11:29:38;25.98;;;17.27;;
66628;SDS011;53532;53.084;6.352;2023-02-21T11:32:09;25.73;;;17.50;;
66628;SDS011;53532;53.084;6.352;2023-02-21T11:34:36;25.27;;;17.02;;
66628;SDS011;53532;53.084;6.352;2023-02-21T11:37:10;23.80;;;16.20;;
66628;SDS011;53532;53.084;6.352;2023-02-21T11:39:36;22.75;;;15.50;;
66628;SDS011;53532;53.084;6.352;2023-02-21T11:42:04;23.15;;;16.00;;
66628;SDS011;53532;53.084;6.352;2023-02-21T11:44:47;23.27;;;16.40;;
66628;SDS011;53532;53.084;6.352;2023-02-21T11:47:18;24.80;;;16.75;;
66628;SDS011;53532;53.084;6.352;2023-02-21T11:49:48;25.65;;;16.45;;
66628;SDS011;53532;53.084;6.352;2023-02-21T11:52:19;26.33;;;17.15;;
66628;SDS011;53532;53.084;6.352;2023-02-21T11:54:45;22.35;;;14.80;;
66628;SDS011;53532;53.084;6.352;2023-02-21T11:57:15;22.77;;;16.00;;
66628;SDS011;53532;53.084;6.352;2023-02-21T11:59:45;25.15;;;17.30;;
66628;SDS011;53532;53.084;6.352;2023-02-21T12:02:20;25.67;;;17.70;;
66628;SDS011;53532;53.084;6.352;2023-02-21T12:05:02;24.20;;;17.30;;
66628;SDS011;53532;53.084;6.352;2023-02-21T12:07:34;22.73;;;16.33;;
66628;SDS011;53532;53.084;6.352;2023-02-21T12:10:04;21.90;;;16.45;;
66628;SDS011;53532;53.084;6.352;2023-02-21T12:12:36;24.88;;;17.38;;
66628;SDS011;53532;53.084;6.352;2023-02-21T12:15:13;24.08;;;17.73;;
66628;SDS011;53532;53.084;6.352;2023-02-21T12:17:45;24.63;;;17.63;;
66628;SDS011;53532;53.084;6.352;2023-02-21T12:20:20;23.25;;;17.58;;
66628;SDS011;53532;53.084;6.352;2023-02-21T12:23:03;24.95;;;17.88;;
66628;SDS011;53532;53.084;6.352;2023-02-21T12:25:33;26.98;;;17.90;;
66628;SDS011;53532;53.084;6.352;2023-02-21T12:28:04;24.90;;;17.77;;
66628;SDS011;53532;53.084;6.352;2023-02-21T12:30:45;25.77;;;18.30;;
66628;SDS011;53532;53.084;6.352;2023-02-21T12:33:21;25.75;;;17.67;;
66628;SDS011;53532;53.084;6.352;2023-02-21T12:36:09;27.02;;;17.77;;
66628;SDS011;53532;53.084;6.352;2023-02-21T12:38:44;25.02;;;18.13;;
66628;SDS011;53532;53.084;6.352;2023-02-21T12:41:31;24.13;;;17.08;;
66628;SDS011;53532;53.084;6.352;2023-02-21T12:44:01;24.83;;;18.15;;
66628;SDS011;53532;53.084;6.352;2023-02-21T12:46:30;26.30;;;17.63;;
66628;SDS011;53532;53.084;6.352;2023-02-21T12:48:58;28.63;;;18.70;;
66628;SDS011;53532;53.084;6.352;2023-02-21T12:51:29;26.55;;;17.92;;
66628;SDS011;53532;53.084;6.352;2023-02-21T12:54:00;25.35;;;17.90;;
66628;SDS011;53532;53.084;6.352;2023-02-21T12:56:29;26.05;;;18.20;;
66628;SDS011;53532;53.084;6.352;2023-02-21T12:58:58;27.40;;;18.98;;
66628;SDS011;53532;53.084;6.352;2023-02-21T13:01:28;26.40;;;17.98;;
66628;SDS011;53532;53.084;6.352;2023-02-21T13:04:00;25.23;;;18.05;;
66628;SDS011;53532;53.084;6.352;2023-02-21T13:06:28;26.15;;;18.42;;
66628;SDS011;53532;53.084;6.352;2023-02-21T13:09:01;26.88;;;18.15;;
66628;SDS011;53532;53.084;6.352;2023-02-21T13:11:32;25.92;;;18.60;;
66628;SDS011;53532;53.084;6.352;2023-02-21T13:14:00;26.27;;;18.10;;
66628;SDS011;53532;53.084;6.352;2023-02-21T13:16:27;26.95;;;18.65;;
66628;SDS011;53532;53.084;6.352;2023-02-21T13:18:54;25.77;;;18.60;;
66628;SDS011;53532;53.084;6.352;2023-02-21T13:21:26;25.48;;;18.73;;
66628;SDS011;53532;53.084;6.352;2023-02-21T13:23:56;26.85;;;18.90;;
66628;SDS011;53532;53.084;6.352;2023-02-21T13:26:52;26.70;;;18.50;;
66628;SDS011;53532;53.084;6.352;2023-02-21T13:29:21;27.33;;;19.40;;
66628;SDS011;53532;53.084;6.352;2023-02-21T13:31:49;28.42;;;19.90;;
66628;SDS011;53532;53.084;6.352;2023-02-21T13:36:48;26.30;;;18.50;;
66628;SDS011;53532;53.084;6.352;2023-02-21T13:39:16;27.90;;;19.33;;
66628;SDS011;53532;53.084;6.352;2023-02-21T13:41:45;29.58;;;20.02;;
66628;SDS011;53532;53.084;6.352;2023-02-21T13:44:16;25.77;;;18.67;;
66628;SDS011;53532;53.084;6.352;2023-02-21T13:49:38;25.67;;;18.67;;
66628;SDS011;53532;53.084;6.352;2023-02-21T13:52:14;29.88;;;20.75;;
66628;SDS011;53532;53.084;6.352;2023-02-21T13:57:30;27.50;;;19.80;;
66628;SDS011;53532;53.084;6.352;2023-02-21T13:59:58;27.27;;;19.20;;
66628;SDS011;53532;53.084;6.352;2023-02-21T14:02:52;27.63;;;19.13;;
66628;SDS011;53532;53.084;6.352;2023-02-21T14:05:19;29.30;;;19.45;;
66628;SDS011;53532;53.084;6.352;2023-02-21T14:07:47;32.22;;;19.77;;
66628;SDS011;53532;53.084;6.352;2023-02-21T14:10:16;29.80;;;19.90;;
66628;SDS011;53532;53.084;6.352;2023-02-21T14:12:42;29.17;;;18.92;;
66628;SDS011;53532;53.084;6.352;2023-02-21T14:15:10;29.00;;;19.58;;
66628;SDS011;53532;53.084;6.352;2023-02-21T14:17:37;27.10;;;18.77;;
66628;SDS011;53532;53.084;6.352;2023-02-21T14:20:04;25.70;;;18.88;;
66628;SDS011;53532;53.084;6.352;2023-02-21T14:22:30;26.70;;;18.35;;
66628;SDS011;53532;53.084;6.352;2023-02-21T14:25:03;28.40;;;19.42;;
66628;SDS011;53532;53.084;6.352;2023-02-21T14:27:31;30.17;;;19.38;;
66628;SDS011;53532;53.084;6.352;2023-02-21T14:32:44;27.90;;;19.80;;
66628;SDS011;53532;53.084;6.352;2023-02-21T14:35:13;31.20;;;19.90;;
66628;SDS011;53532;53.084;6.352;2023-02-21T14:37:50;28.08;;;19.30;;
66628;SDS011;53532;53.084;6.352;2023-02-21T14:40:20;32.47;;;22.10;;
66628;SDS011;53532;53.084;6.352;2023-02-21T14:42:51;33.72;;;22.38;;
66628;SDS011;53532;53.084;6.352;2023-02-21T14:45:25;33.90;;;22.55;;
66628;SDS011;53532;53.084;6.352;2023-02-21T14:48:10;36.45;;;23.13;;
66628;SDS011;53532;53.084;6.352;2023-02-21T14:50:42;35.00;;;24.05;;
66628;SDS011;53532;53.084;6.352;2023-02-21T14:56:01;36.15;;;22.65;;
66628;SDS011;53532;53.084;6.352;2023-02-21T15:01:24;34.35;;;22.50;;
66628;SDS011;53532;53.084;6.352;2023-02-21T15:03:58;34.05;;;23.55;;
66628;SDS011;53532;53.084;6.352;2023-02-21T15:06:25;38.58;;;24.17;;
66628;SDS011;53532;53.084;6.352;2023-02-21T15:08:52;37.38;;;24.00;;